sensor_id;sensor_type;location;lat;lon;timestamp;P1;durP1;ratioP1;P2;durP2;ratioP2
36105;SDS011;22159;55.736;38.048;2022-10-16T00:00:35;9.32;;;8.25;;
36105;SDS011;22159;55.736;38.048;2022-10-16T00:03:02;10.00;;;8.63;;
36105;SDS011;22159;55.736;38.048;2022-10-16T00:05:28;9.93;;;8.40;;
36105;SDS011;22159;55.736;38.048;2022-10-16T00:07:54;9.77;;;8.57;;
36105;SDS011;22159;55.736;38.048;2022-10-16T00:10:21;10.00;;;8.77;;
36105;SDS011;22159;55.736;38.048;2022-10-16T00:12:47;11.88;;;8.80;;
36105;SDS011;22159;55.736;38.048;2022-10-16T00:15:13;8.77;;;7.78;;
36105;SDS011;22159;55.736;38.048;2022-10-16T00:17:39;10.40;;;8.20;;
36105;SDS011;22159;55.736;38.048;2022-10-16T00:20:05;10.20;;;8.23;;
36105;SDS011;22159;55.736;38.048;2022-10-16T00:22:32;8.45;;;7.55;;
36105;SDS011;22159;55.736;38.048;2022-10-16T00:24:58;8.77;;;7.65;;
36105;SDS011;22159;55.736;38.048;2022-10-16T00:27:24;9.27;;;7.57;;
36105;SDS011;22159;55.736;38.048;2022-10-16T00:29:51;10.63;;;8.35;;
36105;SDS011;22159;55.736;38.048;2022-10-16T00:32:17;10.10;;;8.00;;
36105;SDS011;22159;55.736;38.048;2022-10-16T00:34:43;9.52;;;7.63;;
36105;SDS011;22159;55.736;38.048;2022-10-16T00:37:10;9.63;;;7.57;;
36105;SDS011;22159;55.736;38.048;2022-10-16T00:39:36;8.80;;;7.32;;
36105;SDS011;22159;55.736;38.048;2022-10-16T00:42:02;11.07;;;8.02;;
36105;SDS011;22159;55.736;38.048;2022-10-16T00:49:55;9.25;;;7.07;;
36105;SDS011;22159;55.736;38.048;2022-10-16T00:52:21;8.02;;;7.00;;
36105;SDS011;22159;55.736;38.048;2022-10-16T00:54:48;9.60;;;7.22;;
36105;SDS011;22159;55.736;38.048;2022-10-16T00:57:15;9.55;;;6.78;;
36105;SDS011;22159;55.736;38.048;2022-10-16T00:59:42;8.20;;;6.63;;
36105;SDS011;22159;55.736;38.048;2022-10-16T01:02:09;9.23;;;6.60;;
36105;SDS011;22159;55.736;38.048;2022-10-16T01:04:43;9.23;;;7.00;;
36105;SDS011;22159;55.736;38.048;2022-10-16T01:07:39;8.90;;;6.65;;
36105;SDS011;22159;55.736;38.048;2022-10-16T01:12:45;10.43;;;6.50;;
36105;SDS011;22159;55.736;38.048;2022-10-16T01:15:22;7.85;;;6.40;;
36105;SDS011;22159;55.736;38.048;2022-10-16T01:25:34;7.00;;;6.03;;
36105;SDS011;22159;55.736;38.048;2022-10-16T01:28:03;7.90;;;6.20;;
36105;SDS011;22159;55.736;38.048;2022-10-16T01:30:31;7.00;;;6.25;;
36105;SDS011;22159;55.736;38.048;2022-10-16T01:33:17;7.07;;;6.30;;
36105;SDS011;22159;55.736;38.048;2022-10-16T01:35:46;6.97;;;5.70;;
36105;SDS011;22159;55.736;38.048;2022-10-16T01:38:15;8.07;;;6.43;;
36105;SDS011;22159;55.736;38.048;2022-10-16T01:40:44;6.65;;;5.97;;
36105;SDS011;22159;55.736;38.048;2022-10-16T01:43:15;6.65;;;5.90;;
36105;SDS011;22159;55.736;38.048;2022-10-16T01:45:44;7.88;;;5.88;;
36105;SDS011;22159;55.736;38.048;2022-10-16T01:48:11;7.38;;;6.03;;
36105;SDS011;22159;55.736;38.048;2022-10-16T01:50:38;7.43;;;5.70;;
36105;SDS011;22159;55.736;38.048;2022-10-16T01:53:05;6.55;;;5.47;;
36105;SDS011;22159;55.736;38.048;2022-10-16T01:55:32;6.53;;;5.65;;
36105;SDS011;22159;55.736;38.048;2022-10-16T01:57:59;6.55;;;5.57;;
36105;SDS011;22159;55.736;38.048;2022-10-16T02:00:28;6.90;;;5.45;;
36105;SDS011;22159;55.736;38.048;2022-10-16T02:02:55;6.95;;;5.32;;
36105;SDS011;22159;55.736;38.048;2022-10-16T02:05:24;6.75;;;5.63;;
36105;SDS011;22159;55.736;38.048;2022-10-16T02:07:51;5.55;;;4.97;;
36105;SDS011;22159;55.736;38.048;2022-10-16T02:10:18;6.15;;;5.32;;
36105;SDS011;22159;55.736;38.048;2022-10-16T02:15:28;7.55;;;5.25;;
36105;SDS011;22159;55.736;38.048;2022-10-16T02:17:54;6.00;;;5.40;;
36105;SDS011;22159;55.736;38.048;2022-10-16T02:20:22;5.78;;;5.13;;
36105;SDS011;22159;55.736;38.048;2022-10-16T02:22:50;6.28;;;5.20;;
36105;SDS011;22159;55.736;38.048;2022-10-16T02:30:27;6.68;;;5.13;;
36105;SDS011;22159;55.736;38.048;2022-10-16T02:32:54;7.20;;;4.90;;
36105;SDS011;22159;55.736;38.048;2022-10-16T02:35:21;5.22;;;4.72;;
36105;SDS011;22159;55.736;38.048;2022-10-16T02:37:48;6.07;;;4.75;;
36105;SDS011;22159;55.736;38.048;2022-10-16T02:40:15;5.05;;;4.53;;
36105;SDS011;22159;55.736;38.048;2022-10-16T02:42:42;5.15;;;4.65;;
36105;SDS011;22159;55.736;38.048;2022-10-16T02:45:09;5.93;;;4.88;;
36105;SDS011;22159;55.736;38.048;2022-10-16T02:47:35;5.07;;;4.15;;
36105;SDS011;22159;55.736;38.048;2022-10-16T02:50:01;6.00;;;4.75;;
36105;SDS011;22159;55.736;38.048;2022-10-16T02:52:27;5.47;;;4.97;;
36105;SDS011;22159;55.736;38.048;2022-10-16T02:54:53;4.85;;;4.18;;
36105;SDS011;22159;55.736;38.048;2022-10-16T02:57:19;5.95;;;4.90;;
36105;SDS011;22159;55.736;38.048;2022-10-16T02:59:45;5.20;;;4.30;;
36105;SDS011;22159;55.736;38.048;2022-10-16T03:02:11;4.80;;;4.28;;
36105;SDS011;22159;55.736;38.048;2022-10-16T03:04:37;5.03;;;4.40;;
36105;SDS011;22159;55.736;38.048;2022-10-16T03:07:04;5.45;;;4.28;;
36105;SDS011;22159;55.736;38.048;2022-10-16T03:09:30;6.35;;;4.35;;
36105;SDS011;22159;55.736;38.048;2022-10-16T03:11:56;5.28;;;4.10;;
36105;SDS011;22159;55.736;38.048;2022-10-16T03:14:22;4.45;;;4.05;;
36105;SDS011;22159;55.736;38.048;2022-10-16T03:16:48;6.35;;;4.40;;
36105;SDS011;22159;55.736;38.048;2022-10-16T03:19:16;5.72;;;4.22;;
36105;SDS011;22159;55.736;38.048;2022-10-16T03:21:42;6.38;;;4.43;;
36105;SDS011;22159;55.736;38.048;2022-10-16T03:24:09;5.40;;;4.45;;
36105;SDS011;22159;55.736;38.048;2022-10-16T03:26:35;4.82;;;4.18;;
36105;SDS011;22159;55.736;38.048;2022-10-16T03:29:01;5.78;;;4.20;;
36105;SDS011;22159;55.736;38.048;2022-10-16T03:31:28;4.55;;;3.80;;
36105;SDS011;22159;55.736;38.048;2022-10-16T03:33:54;4.88;;;4.20;;
36105;SDS011;22159;55.736;38.048;2022-10-16T03:36:20;4.45;;;3.90;;
36105;SDS011;22159;55.736;38.048;2022-10-16T03:38:46;5.10;;;4.10;;
36105;SDS011;22159;55.736;38.048;2022-10-16T03:41:12;4.78;;;4.00;;
36105;SDS011;22159;55.736;38.048;2022-10-16T03:43:38;5.40;;;3.65;;
36105;SDS011;22159;55.736;38.048;2022-10-16T03:46:04;4.70;;;3.58;;
36105;SDS011;22159;55.736;38.048;2022-10-16T03:48:30;4.20;;;3.78;;
36105;SDS011;22159;55.736;38.048;2022-10-16T03:50:57;4.00;;;3.60;;
36105;SDS011;22159;55.736;38.048;2022-10-16T03:53:23;5.65;;;3.78;;
36105;SDS011;22159;55.736;38.048;2022-10-16T03:55:49;4.63;;;3.80;;
36105;SDS011;22159;55.736;38.048;2022-10-16T03:58:15;3.95;;;3.47;;
36105;SDS011;22159;55.736;38.048;2022-10-16T04:00:42;5.03;;;3.50;;
36105;SDS011;22159;55.736;38.048;2022-10-16T04:03:08;3.90;;;3.50;;
36105;SDS011;22159;55.736;38.048;2022-10-16T04:05:34;4.70;;;3.58;;
36105;SDS011;22159;55.736;38.048;2022-10-16T04:08:00;3.67;;;3.38;;
36105;SDS011;22159;55.736;38.048;2022-10-16T04:10:26;3.85;;;3.40;;
36105;SDS011;22159;55.736;38.048;2022-10-16T04:12:52;4.30;;;3.30;;
36105;SDS011;22159;55.736;38.048;2022-10-16T04:15:20;4.28;;;3.42;;
36105;SDS011;22159;55.736;38.048;2022-10-16T04:17:46;4.97;;;3.80;;
36105;SDS011;22159;55.736;38.048;2022-10-16T04:20:12;3.50;;;3.15;;
36105;SDS011;22159;55.736;38.048;2022-10-16T04:22:38;3.63;;;3.22;;
36105;SDS011;22159;55.736;38.048;2022-10-16T04:25:05;4.20;;;3.70;;
36105;SDS011;22159;55.736;38.048;2022-10-16T04:27:31;3.42;;;3.10;;
36105;SDS011;22159;55.736;38.048;2022-10-16T04:29:58;4.13;;;3.50;;
36105;SDS011;22159;55.736;38.048;2022-10-16T04:32:25;5.47;;;3.65;;
36105;SDS011;22159;55.736;38.048;2022-10-16T04:34:51;5.07;;;3.47;;
36105;SDS011;22159;55.736;38.048;2022-10-16T04:37:17;3.58;;;2.80;;
36105;SDS011;22159;55.736;38.048;2022-10-16T04:39:43;4.03;;;3.00;;
36105;SDS011;22159;55.736;38.048;2022-10-16T04:42:09;4.00;;;3.00;;
36105;SDS011;22159;55.736;38.048;2022-10-16T04:44:36;5.30;;;3.25;;
36105;SDS011;22159;55.736;38.048;2022-10-16T04:47:02;4.03;;;3.28;;
36105;SDS011;22159;55.736;38.048;2022-10-16T04:49:29;3.85;;;3.00;;
36105;SDS011;22159;55.736;38.048;2022-10-16T04:51:55;3.70;;;3.20;;
36105;SDS011;22159;55.736;38.048;2022-10-16T04:54:21;4.28;;;3.05;;
36105;SDS011;22159;55.736;38.048;2022-10-16T04:56:47;4.22;;;3.22;;
36105;SDS011;22159;55.736;38.048;2022-10-16T04:59:15;4.63;;;3.30;;
36105;SDS011;22159;55.736;38.048;2022-10-16T05:01:41;6.38;;;3.25;;
36105;SDS011;22159;55.736;38.048;2022-10-16T05:04:07;3.63;;;2.63;;
36105;SDS011;22159;55.736;38.048;2022-10-16T05:06:33;5.50;;;3.63;;
36105;SDS011;22159;55.736;38.048;2022-10-16T05:08:59;5.93;;;3.30;;
36105;SDS011;22159;55.736;38.048;2022-10-16T05:11:25;4.80;;;3.25;;
36105;SDS011;22159;55.736;38.048;2022-10-16T05:13:52;4.65;;;3.08;;
36105;SDS011;22159;55.736;38.048;2022-10-16T05:16:18;3.72;;;2.97;;
36105;SDS011;22159;55.736;38.048;2022-10-16T05:18:44;3.42;;;2.80;;
36105;SDS011;22159;55.736;38.048;2022-10-16T05:21:10;6.20;;;3.65;;
36105;SDS011;22159;55.736;38.048;2022-10-16T05:23:36;4.30;;;3.22;;
36105;SDS011;22159;55.736;38.048;2022-10-16T05:26:02;4.43;;;2.50;;
36105;SDS011;22159;55.736;38.048;2022-10-16T05:28:28;3.67;;;2.83;;
36105;SDS011;22159;55.736;38.048;2022-10-16T05:30:55;3.38;;;2.72;;
36105;SDS011;22159;55.736;38.048;2022-10-16T05:33:22;3.72;;;2.60;;
36105;SDS011;22159;55.736;38.048;2022-10-16T05:35:48;4.95;;;3.30;;
36105;SDS011;22159;55.736;38.048;2022-10-16T05:38:15;5.78;;;3.40;;
36105;SDS011;22159;55.736;38.048;2022-10-16T05:40:41;3.78;;;2.60;;
36105;SDS011;22159;55.736;38.048;2022-10-16T05:43:07;3.13;;;2.83;;
36105;SDS011;22159;55.736;38.048;2022-10-16T05:45:33;6.05;;;2.90;;
36105;SDS011;22159;55.736;38.048;2022-10-16T05:48:00;5.03;;;3.20;;
36105;SDS011;22159;55.736;38.048;2022-10-16T05:50:26;4.20;;;3.25;;
36105;SDS011;22159;55.736;38.048;2022-10-16T05:52:52;3.70;;;2.95;;
36105;SDS011;22159;55.736;38.048;2022-10-16T05:55:18;4.45;;;3.17;;
36105;SDS011;22159;55.736;38.048;2022-10-16T05:57:44;4.82;;;3.45;;
36105;SDS011;22159;55.736;38.048;2022-10-16T06:00:10;7.13;;;4.05;;
36105;SDS011;22159;55.736;38.048;2022-10-16T06:02:37;4.47;;;3.78;;
36105;SDS011;22159;55.736;38.048;2022-10-16T06:05:03;4.70;;;3.58;;
36105;SDS011;22159;55.736;38.048;2022-10-16T06:07:29;5.35;;;3.72;;
36105;SDS011;22159;55.736;38.048;2022-10-16T06:09:55;5.28;;;4.00;;
36105;SDS011;22159;55.736;38.048;2022-10-16T06:12:21;7.30;;;4.03;;
36105;SDS011;22159;55.736;38.048;2022-10-16T06:14:47;4.93;;;3.75;;
36105;SDS011;22159;55.736;38.048;2022-10-16T06:17:13;5.78;;;4.00;;
36105;SDS011;22159;55.736;38.048;2022-10-16T06:19:39;6.38;;;4.30;;
36105;SDS011;22159;55.736;38.048;2022-10-16T06:22:06;4.93;;;3.78;;
36105;SDS011;22159;55.736;38.048;2022-10-16T06:24:32;5.25;;;3.83;;
36105;SDS011;22159;55.736;38.048;2022-10-16T06:26:58;5.43;;;3.47;;
36105;SDS011;22159;55.736;38.048;2022-10-16T06:29:24;8.23;;;4.03;;
36105;SDS011;22159;55.736;38.048;2022-10-16T06:31:50;5.57;;;3.58;;
36105;SDS011;22159;55.736;38.048;2022-10-16T06:34:16;4.38;;;3.75;;
36105;SDS011;22159;55.736;38.048;2022-10-16T06:36:42;5.93;;;3.92;;
36105;SDS011;22159;55.736;38.048;2022-10-16T06:39:08;6.60;;;3.90;;
36105;SDS011;22159;55.736;38.048;2022-10-16T06:41:34;4.65;;;3.45;;
36105;SDS011;22159;55.736;38.048;2022-10-16T06:44:00;4.85;;;3.38;;
36105;SDS011;22159;55.736;38.048;2022-10-16T06:46:27;5.93;;;3.38;;
36105;SDS011;22159;55.736;38.048;2022-10-16T06:48:53;6.18;;;3.95;;
36105;SDS011;22159;55.736;38.048;2022-10-16T06:51:20;8.65;;;4.05;;
36105;SDS011;22159;55.736;38.048;2022-10-16T06:53:47;5.68;;;3.60;;
36105;SDS011;22159;55.736;38.048;2022-10-16T06:56:18;11.05;;;3.92;;
36105;SDS011;22159;55.736;38.048;2022-10-16T06:58:45;6.18;;;3.75;;
36105;SDS011;22159;55.736;38.048;2022-10-16T07:01:12;7.85;;;3.83;;
36105;SDS011;22159;55.736;38.048;2022-10-16T07:03:39;5.85;;;3.65;;
36105;SDS011;22159;55.736;38.048;2022-10-16T07:06:06;7.43;;;3.45;;
36105;SDS011;22159;55.736;38.048;2022-10-16T07:08:33;7.95;;;3.75;;
36105;SDS011;22159;55.736;38.048;2022-10-16T07:11:03;9.27;;;3.72;;
36105;SDS011;22159;55.736;38.048;2022-10-16T07:13:32;8.13;;;3.80;;
36105;SDS011;22159;55.736;38.048;2022-10-16T07:16:03;8.25;;;4.13;;
36105;SDS011;22159;55.736;38.048;2022-10-16T07:21:02;8.02;;;3.80;;
36105;SDS011;22159;55.736;38.048;2022-10-16T07:23:28;6.55;;;3.58;;
36105;SDS011;22159;55.736;38.048;2022-10-16T07:25:54;7.45;;;3.55;;
36105;SDS011;22159;55.736;38.048;2022-10-16T07:28:20;8.48;;;3.60;;
36105;SDS011;22159;55.736;38.048;2022-10-16T07:30:47;6.15;;;3.63;;
36105;SDS011;22159;55.736;38.048;2022-10-16T07:33:13;6.38;;;3.60;;
36105;SDS011;22159;55.736;38.048;2022-10-16T07:35:47;7.07;;;3.40;;
36105;SDS011;22159;55.736;38.048;2022-10-16T07:38:13;4.80;;;3.17;;
36105;SDS011;22159;55.736;38.048;2022-10-16T07:40:39;7.70;;;3.38;;
36105;SDS011;22159;55.736;38.048;2022-10-16T07:43:05;6.78;;;3.58;;
36105;SDS011;22159;55.736;38.048;2022-10-16T07:45:31;5.25;;;3.10;;
36105;SDS011;22159;55.736;38.048;2022-10-16T07:47:57;5.95;;;3.35;;
36105;SDS011;22159;55.736;38.048;2022-10-16T07:50:23;5.72;;;3.60;;
36105;SDS011;22159;55.736;38.048;2022-10-16T07:52:49;4.57;;;2.92;;
36105;SDS011;22159;55.736;38.048;2022-10-16T07:55:15;3.63;;;2.80;;
36105;SDS011;22159;55.736;38.048;2022-10-16T07:57:41;5.13;;;2.70;;
36105;SDS011;22159;55.736;38.048;2022-10-16T08:00:07;5.43;;;2.92;;
36105;SDS011;22159;55.736;38.048;2022-10-16T08:02:38;4.60;;;2.83;;
36105;SDS011;22159;55.736;38.048;2022-10-16T08:05:04;4.72;;;3.13;;
36105;SDS011;22159;55.736;38.048;2022-10-16T08:07:31;4.80;;;3.38;;
36105;SDS011;22159;55.736;38.048;2022-10-16T08:09:57;4.45;;;3.22;;
36105;SDS011;22159;55.736;38.048;2022-10-16T08:12:24;3.83;;;3.03;;
36105;SDS011;22159;55.736;38.048;2022-10-16T08:14:50;3.65;;;2.83;;
36105;SDS011;22159;55.736;38.048;2022-10-16T08:17:16;4.88;;;3.15;;
36105;SDS011;22159;55.736;38.048;2022-10-16T08:19:48;6.72;;;3.33;;
36105;SDS011;22159;55.736;38.048;2022-10-16T08:22:14;4.70;;;2.53;;
36105;SDS011;22159;55.736;38.048;2022-10-16T08:24:40;4.50;;;3.10;;
36105;SDS011;22159;55.736;38.048;2022-10-16T08:27:06;4.55;;;2.75;;
36105;SDS011;22159;55.736;38.048;2022-10-16T08:29:33;4.95;;;2.72;;
36105;SDS011;22159;55.736;38.048;2022-10-16T08:31:59;6.25;;;2.50;;
36105;SDS011;22159;55.736;38.048;2022-10-16T08:34:25;4.13;;;2.53;;
36105;SDS011;22159;55.736;38.048;2022-10-16T08:36:54;5.90;;;2.60;;
36105;SDS011;22159;55.736;38.048;2022-10-16T08:39:20;4.88;;;3.05;;
36105;SDS011;22159;55.736;38.048;2022-10-16T08:46:54;6.55;;;2.72;;
36105;SDS011;22159;55.736;38.048;2022-10-16T08:49:22;3.08;;;2.53;;
36105;SDS011;22159;55.736;38.048;2022-10-16T08:51:49;4.68;;;2.90;;
36105;SDS011;22159;55.736;38.048;2022-10-16T08:56:50;4.20;;;2.55;;
36105;SDS011;22159;55.736;38.048;2022-10-16T08:59:16;3.80;;;2.83;;
36105;SDS011;22159;55.736;38.048;2022-10-16T09:01:44;3.45;;;2.42;;
36105;SDS011;22159;55.736;38.048;2022-10-16T09:06:56;3.85;;;2.47;;
36105;SDS011;22159;55.736;38.048;2022-10-16T09:12:47;3.92;;;2.53;;
36105;SDS011;22159;55.736;38.048;2022-10-16T09:14:58;5.47;;;2.70;;
36105;SDS011;22159;55.736;38.048;2022-10-16T09:20:03;3.25;;;2.33;;
36105;SDS011;22159;55.736;38.048;2022-10-16T09:22:32;4.70;;;2.67;;
36105;SDS011;22159;55.736;38.048;2022-10-16T09:24:59;5.50;;;2.80;;
36105;SDS011;22159;55.736;38.048;2022-10-16T09:27:26;3.58;;;2.70;;
36105;SDS011;22159;55.736;38.048;2022-10-16T09:29:53;5.45;;;2.72;;
36105;SDS011;22159;55.736;38.048;2022-10-16T09:32:19;5.03;;;2.80;;
36105;SDS011;22159;55.736;38.048;2022-10-16T09:34:55;4.82;;;2.92;;
36105;SDS011;22159;55.736;38.048;2022-10-16T09:37:22;3.90;;;2.88;;
36105;SDS011;22159;55.736;38.048;2022-10-16T09:39:50;5.05;;;3.00;;
36105;SDS011;22159;55.736;38.048;2022-10-16T09:42:17;4.25;;;2.88;;
36105;SDS011;22159;55.736;38.048;2022-10-16T09:44:47;3.67;;;2.58;;
36105;SDS011;22159;55.736;38.048;2022-10-16T09:47:23;5.70;;;2.47;;
36105;SDS011;22159;55.736;38.048;2022-10-16T09:50:04;4.57;;;3.17;;
36105;SDS011;22159;55.736;38.048;2022-10-16T09:52:31;4.45;;;2.83;;
36105;SDS011;22159;55.736;38.048;2022-10-16T09:55:01;3.60;;;2.97;;
36105;SDS011;22159;55.736;38.048;2022-10-16T09:59:56;3.60;;;2.85;;
36105;SDS011;22159;55.736;38.048;2022-10-16T10:02:35;3.67;;;2.30;;
36105;SDS011;22159;55.736;38.048;2022-10-16T10:05:05;3.47;;;2.78;;
36105;SDS011;22159;55.736;38.048;2022-10-16T10:07:43;4.40;;;2.80;;
36105;SDS011;22159;55.736;38.048;2022-10-16T10:10:19;6.18;;;2.65;;
36105;SDS011;22159;55.736;38.048;2022-10-16T10:12:45;3.83;;;2.88;;
36105;SDS011;22159;55.736;38.048;2022-10-16T10:15:12;5.97;;;2.67;;
36105;SDS011;22159;55.736;38.048;2022-10-16T10:17:47;3.33;;;2.70;;
36105;SDS011;22159;55.736;38.048;2022-10-16T10:22:56;6.20;;;3.05;;
36105;SDS011;22159;55.736;38.048;2022-10-16T10:35:45;2.88;;;2.45;;
36105;SDS011;22159;55.736;38.048;2022-10-16T10:40:45;6.18;;;3.22;;
36105;SDS011;22159;55.736;38.048;2022-10-16T10:45:48;5.95;;;3.30;;
36105;SDS011;22159;55.736;38.048;2022-10-16T10:55:48;4.30;;;3.28;;
36105;SDS011;22159;55.736;38.048;2022-10-16T11:03:23;3.42;;;2.90;;
36105;SDS011;22159;55.736;38.048;2022-10-16T11:05:56;5.00;;;2.92;;
36105;SDS011;22159;55.736;38.048;2022-10-16T11:08:41;3.78;;;3.00;;
36105;SDS011;22159;55.736;38.048;2022-10-16T11:11:10;5.57;;;3.15;;
36105;SDS011;22159;55.736;38.048;2022-10-16T11:18:52;4.35;;;3.33;;
36105;SDS011;22159;55.736;38.048;2022-10-16T11:21:21;4.22;;;3.15;;
36105;SDS011;22159;55.736;38.048;2022-10-16T11:26:16;5.82;;;2.97;;
36105;SDS011;22159;55.736;38.048;2022-10-16T11:28:49;4.75;;;3.38;;
36105;SDS011;22159;55.736;38.048;2022-10-16T11:33:44;4.82;;;3.33;;
36105;SDS011;22159;55.736;38.048;2022-10-16T11:36:16;3.88;;;2.90;;
36105;SDS011;22159;55.736;38.048;2022-10-16T11:43:38;3.92;;;3.15;;
36105;SDS011;22159;55.736;38.048;2022-10-16T11:46:18;4.10;;;3.00;;
36105;SDS011;22159;55.736;38.048;2022-10-16T11:49:27;4.00;;;3.20;;
36105;SDS011;22159;55.736;38.048;2022-10-16T11:56:51;3.65;;;2.70;;
36105;SDS011;22159;55.736;38.048;2022-10-16T12:02:02;4.70;;;3.13;;
36105;SDS011;22159;55.736;38.048;2022-10-16T12:04:36;5.45;;;4.00;;
36105;SDS011;22159;55.736;38.048;2022-10-16T12:07:11;6.95;;;4.40;;
36105;SDS011;22159;55.736;38.048;2022-10-16T12:09:39;7.38;;;4.32;;
36105;SDS011;22159;55.736;38.048;2022-10-16T12:12:23;5.05;;;4.25;;
36105;SDS011;22159;55.736;38.048;2022-10-16T12:14:58;4.70;;;3.88;;
36105;SDS011;22159;55.736;38.048;2022-10-16T12:17:37;5.32;;;3.47;;
36105;SDS011;22159;55.736;38.048;2022-10-16T12:22:47;5.20;;;3.72;;
36105;SDS011;22159;55.736;38.048;2022-10-16T12:25:20;4.88;;;3.78;;
36105;SDS011;22159;55.736;38.048;2022-10-16T12:27:53;4.82;;;3.60;;
36105;SDS011;22159;55.736;38.048;2022-10-16T12:30:23;5.47;;;3.67;;
36105;SDS011;22159;55.736;38.048;2022-10-16T12:32:57;7.55;;;4.13;;
36105;SDS011;22159;55.736;38.048;2022-10-16T12:35:25;4.57;;;4.05;;
36105;SDS011;22159;55.736;38.048;2022-10-16T12:37:52;5.88;;;3.60;;
36105;SDS011;22159;55.736;38.048;2022-10-16T12:40:31;5.38;;;3.80;;
36105;SDS011;22159;55.736;38.048;2022-10-16T12:42:58;4.78;;;3.72;;
36105;SDS011;22159;55.736;38.048;2022-10-16T12:45:31;10.13;;;3.80;;
36105;SDS011;22159;55.736;38.048;2022-10-16T12:47:58;6.35;;;3.58;;
36105;SDS011;22159;55.736;38.048;2022-10-16T12:52:53;4.55;;;3.30;;
36105;SDS011;22159;55.736;38.048;2022-10-16T12:55:20;4.15;;;3.30;;
36105;SDS011;22159;55.736;38.048;2022-10-16T13:05:53;6.28;;;3.35;;
36105;SDS011;22159;55.736;38.048;2022-10-16T13:19:34;4.70;;;3.30;;
36105;SDS011;22159;55.736;38.048;2022-10-16T13:21:43;7.10;;;3.70;;
36105;SDS011;22159;55.736;38.048;2022-10-16T13:29:05;5.78;;;3.78;;
36105;SDS011;22159;55.736;38.048;2022-10-16T13:31:31;4.80;;;3.40;;
36105;SDS011;22159;55.736;38.048;2022-10-16T13:33:59;5.50;;;3.20;;
36105;SDS011;22159;55.736;38.048;2022-10-16T13:41:36;3.58;;;3.22;;
36105;SDS011;22159;55.736;38.048;2022-10-16T13:44:02;6.03;;;3.45;;
36105;SDS011;22159;55.736;38.048;2022-10-16T13:46:29;4.90;;;3.00;;
36105;SDS011;22159;55.736;38.048;2022-10-16T13:49:20;5.93;;;3.43;;
36105;SDS011;22159;55.736;38.048;2022-10-16T13:51:58;4.53;;;3.70;;
36105;SDS011;22159;55.736;38.048;2022-10-16T13:54:25;6.07;;;3.85;;
36105;SDS011;22159;55.736;38.048;2022-10-16T13:56:51;5.85;;;3.85;;
36105;SDS011;22159;55.736;38.048;2022-10-16T13:59:25;4.22;;;3.05;;
36105;SDS011;22159;55.736;38.048;2022-10-16T14:01:52;4.88;;;3.70;;
36105;SDS011;22159;55.736;38.048;2022-10-16T14:04:19;5.03;;;3.63;;
36105;SDS011;22159;55.736;38.048;2022-10-16T14:06:46;3.97;;;3.38;;
36105;SDS011;22159;55.736;38.048;2022-10-16T14:09:24;6.53;;;4.45;;
36105;SDS011;22159;55.736;38.048;2022-10-16T14:11:52;5.47;;;4.15;;
36105;SDS011;22159;55.736;38.048;2022-10-16T14:14:19;5.22;;;3.83;;
36105;SDS011;22159;55.736;38.048;2022-10-16T14:16:45;7.43;;;4.38;;
36105;SDS011;22159;55.736;38.048;2022-10-16T14:19:19;7.55;;;4.25;;
36105;SDS011;22159;55.736;38.048;2022-10-16T14:21:46;7.50;;;4.90;;
36105;SDS011;22159;55.736;38.048;2022-10-16T14:24:12;6.60;;;4.65;;
36105;SDS011;22159;55.736;38.048;2022-10-16T14:26:42;7.43;;;4.70;;
36105;SDS011;22159;55.736;38.048;2022-10-16T14:29:13;8.45;;;5.05;;
36105;SDS011;22159;55.736;38.048;2022-10-16T14:31:40;7.18;;;4.32;;
36105;SDS011;22159;55.736;38.048;2022-10-16T14:34:22;7.15;;;4.35;;
36105;SDS011;22159;55.736;38.048;2022-10-16T14:36:49;10.32;;;4.70;;
36105;SDS011;22159;55.736;38.048;2022-10-16T14:39:22;6.97;;;4.80;;
36105;SDS011;22159;55.736;38.048;2022-10-16T14:41:49;8.85;;;5.00;;
36105;SDS011;22159;55.736;38.048;2022-10-16T14:44:17;7.53;;;5.15;;
36105;SDS011;22159;55.736;38.048;2022-10-16T14:46:43;7.68;;;5.05;;
36105;SDS011;22159;55.736;38.048;2022-10-16T14:51:36;7.32;;;5.53;;
36105;SDS011;22159;55.736;38.048;2022-10-16T14:54:03;10.02;;;6.03;;
36105;SDS011;22159;55.736;38.048;2022-10-16T14:56:34;10.18;;;6.40;;
36105;SDS011;22159;55.736;38.048;2022-10-16T14:59:01;10.02;;;6.30;;
36105;SDS011;22159;55.736;38.048;2022-10-16T15:01:28;8.07;;;6.03;;
36105;SDS011;22159;55.736;38.048;2022-10-16T15:03:54;10.85;;;6.35;;
36105;SDS011;22159;55.736;38.048;2022-10-16T15:06:20;8.13;;;6.00;;
36105;SDS011;22159;55.736;38.048;2022-10-16T15:08:47;9.98;;;6.07;;
36105;SDS011;22159;55.736;38.048;2022-10-16T15:11:14;7.72;;;6.05;;
36105;SDS011;22159;55.736;38.048;2022-10-16T15:13:40;9.05;;;5.78;;
36105;SDS011;22159;55.736;38.048;2022-10-16T15:16:15;9.50;;;6.53;;
36105;SDS011;22159;55.736;38.048;2022-10-16T15:18:41;10.23;;;6.43;;
36105;SDS011;22159;55.736;38.048;2022-10-16T15:21:08;10.27;;;6.43;;
36105;SDS011;22159;55.736;38.048;2022-10-16T15:23:34;9.27;;;6.20;;
36105;SDS011;22159;55.736;38.048;2022-10-16T15:26:00;9.30;;;6.72;;
36105;SDS011;22159;55.736;38.048;2022-10-16T15:28:26;11.90;;;6.50;;
36105;SDS011;22159;55.736;38.048;2022-10-16T15:30:53;11.43;;;6.45;;
36105;SDS011;22159;55.736;38.048;2022-10-16T15:33:21;11.10;;;6.50;;
36105;SDS011;22159;55.736;38.048;2022-10-16T15:35:51;9.07;;;6.15;;
36105;SDS011;22159;55.736;38.048;2022-10-16T15:38:18;10.82;;;7.20;;
36105;SDS011;22159;55.736;38.048;2022-10-16T15:40:45;12.20;;;6.65;;
36105;SDS011;22159;55.736;38.048;2022-10-16T15:43:11;12.50;;;7.55;;
36105;SDS011;22159;55.736;38.048;2022-10-16T15:45:37;10.40;;;6.72;;
36105;SDS011;22159;55.736;38.048;2022-10-16T15:48:04;10.82;;;7.38;;
36105;SDS011;22159;55.736;38.048;2022-10-16T15:50:30;10.88;;;7.05;;
36105;SDS011;22159;55.736;38.048;2022-10-16T15:52:57;12.07;;;7.32;;
36105;SDS011;22159;55.736;38.048;2022-10-16T15:55:23;9.52;;;7.18;;
36105;SDS011;22159;55.736;38.048;2022-10-16T15:57:50;9.77;;;7.40;;
36105;SDS011;22159;55.736;38.048;2022-10-16T16:00:17;12.55;;;7.75;;
36105;SDS011;22159;55.736;38.048;2022-10-16T16:02:49;10.40;;;7.50;;
36105;SDS011;22159;55.736;38.048;2022-10-16T16:05:16;11.25;;;7.38;;
36105;SDS011;22159;55.736;38.048;2022-10-16T16:07:42;11.43;;;7.78;;
36105;SDS011;22159;55.736;38.048;2022-10-16T16:10:08;12.63;;;7.90;;
36105;SDS011;22159;55.736;38.048;2022-10-16T16:12:35;10.90;;;7.45;;
36105;SDS011;22159;55.736;38.048;2022-10-16T16:15:02;14.75;;;7.45;;
36105;SDS011;22159;55.736;38.048;2022-10-16T16:17:29;12.68;;;7.68;;
36105;SDS011;22159;55.736;38.048;2022-10-16T16:19:55;13.60;;;7.85;;
36105;SDS011;22159;55.736;38.048;2022-10-16T16:22:22;9.98;;;7.57;;
36105;SDS011;22159;55.736;38.048;2022-10-16T16:24:48;14.35;;;7.25;;
36105;SDS011;22159;55.736;38.048;2022-10-16T16:27:14;10.57;;;8.00;;
36105;SDS011;22159;55.736;38.048;2022-10-16T16:29:40;11.40;;;7.50;;
36105;SDS011;22159;55.736;38.048;2022-10-16T16:32:06;14.27;;;7.97;;
36105;SDS011;22159;55.736;38.048;2022-10-16T16:34:32;12.88;;;8.27;;
36105;SDS011;22159;55.736;38.048;2022-10-16T16:36:59;11.45;;;7.72;;
36105;SDS011;22159;55.736;38.048;2022-10-16T16:39:25;12.23;;;7.55;;
36105;SDS011;22159;55.736;38.048;2022-10-16T16:41:51;12.13;;;8.10;;
36105;SDS011;22159;55.736;38.048;2022-10-16T16:44:17;14.00;;;8.15;;
36105;SDS011;22159;55.736;38.048;2022-10-16T16:46:44;13.82;;;7.78;;
36105;SDS011;22159;55.736;38.048;2022-10-16T16:49:11;10.10;;;8.02;;
36105;SDS011;22159;55.736;38.048;2022-10-16T16:51:37;12.02;;;7.47;;